Time;durP1;ratioP1;P1;durP2;ratioP2;P2;SDS_P1;SDS_P2;PMS_P1;PMS_P2;Temp;Humidity;BMP_temperature;BMP_pressure;BME280_temperature;BME280_humidity;BME280_pressure;Samples;Min_cycle;Max_cycle;Signal;HPM_P1;HPM_P2
2022/09/12 00:00:15;;;;;;;11.07;10.17;;;;;;;;;;5061901;28;20446;-78
2022/09/12 00:02:42;;;;;;;10.80;10.00;;;;;;;;;;5063418;28;20804;-77
2022/09/12 00:05:09;;;;;;;12.13;11.20;;;;;;;;;;5055435;28;20499;-78
2022/09/12 00:07:36;;;;;;;10.63;9.73;;;;;;;;;;5052376;28;20826;-77
2022/09/12 00:10:04;;;;;;;10.63;9.83;;;;;;;;;;5052238;28;20446;-77
2022/09/12 00:12:31;;;;;;;10.70;9.90;;;;;;;;;;5051902;28;20477;-78
2022/09/12 00:14:58;;;;;;;11.70;10.60;;;;;;;;;;5051559;28;20957;-78
2022/09/12 00:17:26;;;;;;;10.33;9.50;;;;;;;;;;5051444;28;20469;-78
2022/09/12 00:19:54;;;;;;;10.63;9.77;;;;;;;;;;5052095;28;20800;-77
2022/09/12 00:22:21;;;;;;;10.87;9.97;;;;;;;;;;5051925;28;20449;-77
2022/09/12 00:24:48;;;;;;;11.37;10.47;;;;;;;;;;5051616;28;20797;-78
2022/09/12 00:27:15;;;;;;;11.80;10.60;;;;;;;;;;5053469;28;20466;-78
2022/09/12 00:29:42;;;;;;;11.37;10.37;;;;;;;;;;5051490;28;20453;-78
2022/09/12 00:32:10;;;;;;;11.50;10.50;;;;;;;;;;5051356;28;20489;-77
2022/09/12 00:34:38;;;;;;;11.50;10.50;;;;;;;;;;5051978;28;20446;-79
2022/09/12 00:37:05;;;;;;;11.47;10.60;;;;;;;;;;5051775;28;20466;-78
2022/09/12 00:39:32;;;;;;;11.23;10.27;;;;;;;;;;5051417;28;20441;-78
2022/09/12 00:41:59;;;;;;;11.00;9.90;;;;;;;;;;5052353;28;20853;-78
2022/09/12 00:44:46;;;;;;;12.10;11.07;;;;;;;;;;5051045;28;20445;-77
2022/09/12 00:47:16;;;;;;;10.80;9.73;;;;;;;;;;5051076;28;20527;-78
2022/09/12 00:49:48;;;;;;;11.27;10.33;;;;;;;;;;5051247;28;20858;-77
2022/09/12 00:52:17;;;;;;;12.30;11.20;;;;;;;;;;5050726;28;20478;-78
2022/09/12 00:54:45;;;;;;;11.33;10.40;;;;;;;;;;5051633;28;20457;-78
2022/09/12 00:57:14;;;;;;;11.03;10.07;;;;;;;;;;5051162;28;20465;-78
2022/09/12 00:59:43;;;;;;;12.33;11.17;;;;;;;;;;5050862;28;20461;-78
2022/09/12 01:02:10;;;;;;;10.87;9.87;;;;;;;;;;5051222;28;20818;-78
2022/09/12 01:04:38;;;;;;;12.73;11.73;;;;;;;;;;5050739;28;20492;-77
2022/09/12 01:07:08;;;;;;;13.63;12.60;;;;;;;;;;5051166;28;20502;-77
2022/09/12 01:09:36;;;;;;;12.87;11.77;;;;;;;;;;5051890;28;20441;-77
2022/09/12 01:12:03;;;;;;;12.07;10.83;;;;;;;;;;5050822;28;20488;-78
2022/09/12 01:14:30;;;;;;;13.00;11.80;;;;;;;;;;5050719;28;21066;-77
2022/09/12 01:16:57;;;;;;;12.63;11.40;;;;;;;;;;5050863;28;20511;-79
2022/09/12 01:19:41;;;;;;;11.80;10.77;;;;;;;;;;5050697;28;20778;-78
2022/09/12 01:22:17;;;;;;;13.40;12.13;;;;;;;;;;5051150;28;20434;-78
2022/09/12 01:24:53;;;;;;;12.63;10.60;;;;;;;;;;5051168;28;20507;-78
2022/09/12 01:27:46;;;;;;;12.57;11.40;;;;;;;;;;5050708;28;20465;-77
2022/09/12 01:30:28;;;;;;;13.93;11.70;;;;;;;;;;5015425;28;20494;-77
2022/09/12 01:33:07;;;;;;;13.30;12.10;;;;;;;;;;5051793;28;20480;-78
2022/09/12 01:35:39;;;;;;;13.50;12.30;;;;;;;;;;5055930;28;20430;-77
2022/09/12 01:38:11;;;;;;;12.43;11.23;;;;;;;;;;5052119;28;20539;-77
2022/09/12 01:40:43;;;;;;;11.97;10.97;;;;;;;;;;5054889;28;20453;-77
2022/09/12 01:43:16;;;;;;;12.40;11.20;;;;;;;;;;5054939;28;20438;-77
2022/09/12 01:45:46;;;;;;;13.20;11.80;;;;;;;;;;5055253;28;20674;-77
2022/09/12 01:48:18;;;;;;;12.10;10.90;;;;;;;;;;5055785;28;20527;-77
2022/09/12 01:50:48;;;;;;;12.67;11.60;;;;;;;;;;5052324;28;20457;-78
2022/09/12 01:53:18;;;;;;;11.60;10.60;;;;;;;;;;5050085;28;20572;-77
2022/09/12 01:55:48;;;;;;;12.47;11.30;;;;;;;;;;5058498;28;20437;-79
2022/09/12 01:58:19;;;;;;;12.83;11.60;;;;;;;;;;5055340;28;20457;-77
2022/09/12 02:00:48;;;;;;;13.33;12.23;;;;;;;;;;5051045;28;20500;-78
2022/09/12 02:03:19;;;;;;;13.10;12.10;;;;;;;;;;5050063;28;20438;-76
2022/09/12 02:05:48;;;;;;;13.00;11.80;;;;;;;;;;5051288;28;20449;-77
2022/09/12 02:08:17;;;;;;;13.87;12.57;;;;;;;;;;5050625;28;20508;-78
2022/09/12 02:10:47;;;;;;;12.37;11.27;;;;;;;;;;5051240;28;20473;-78
2022/09/12 02:13:18;;;;;;;12.53;11.40;;;;;;;;;;5050800;28;20477;-78
2022/09/12 02:15:47;;;;;;;13.93;12.63;;;;;;;;;;5050733;28;20941;-78
2022/09/12 02:18:16;;;;;;;13.70;12.50;;;;;;;;;;5049986;28;20466;-78
2022/09/12 02:20:46;;;;;;;13.43;12.20;;;;;;;;;;5050348;28;20454;-77
2022/09/12 02:23:16;;;;;;;12.63;11.43;;;;;;;;;;5050056;28;20441;-78
2022/09/12 02:25:45;;;;;;;12.70;11.70;;;;;;;;;;5050035;28;20869;-78
2022/09/12 02:28:15;;;;;;;13.30;11.43;;;;;;;;;;5049766;28;20515;-77
2022/09/12 02:30:44;;;;;;;13.90;12.00;;;;;;;;;;5049572;28;20477;-78
2022/09/12 02:33:15;;;;;;;11.87;10.83;;;;;;;;;;5049647;28;20523;-78
2022/09/12 02:35:47;;;;;;;12.90;11.80;;;;;;;;;;5050471;28;20453;-77
2022/09/12 02:38:17;;;;;;;13.00;11.80;;;;;;;;;;5049919;28;20572;-78
2022/09/12 02:40:44;;;;;;;12.47;11.47;;;;;;;;;;5049573;28;20582;-77
2022/09/12 02:43:11;;;;;;;12.40;11.30;;;;;;;;;;5049154;28;20808;-78
2022/09/12 02:45:38;;;;;;;14.10;12.90;;;;;;;;;;5049752;28;20442;-78
2022/09/12 02:48:08;;;;;;;12.50;11.30;;;;;;;;;;5049622;28;20453;-77
2022/09/12 02:50:36;;;;;;;14.53;12.90;;;;;;;;;;5051019;28;20445;-77
2022/09/12 02:53:05;;;;;;;14.23;12.77;;;;;;;;;;5050161;28;20531;-77
2022/09/12 02:55:32;;;;;;;14.07;12.87;;;;;;;;;;5049956;28;20446;-77
2022/09/12 02:57:59;;;;;;;14.37;13.00;;;;;;;;;;5050205;28;20519;-77
2022/09/12 03:00:28;;;;;;;13.37;12.17;;;;;;;;;;5050131;28;20500;-78
2022/09/12 03:03:05;;;;;;;12.90;11.80;;;;;;;;;;5050099;28;20496;-78
2022/09/12 03:05:33;;;;;;;14.07;12.77;;;;;;;;;;5049830;28;20453;-77
2022/09/12 03:08:05;;;;;;;13.30;12.20;;;;;;;;;;5049530;28;21032;-79
2022/09/12 03:10:38;;;;;;;14.23;13.03;;;;;;;;;;5050068;28;20468;-78
2022/09/12 03:13:12;;;;;;;14.20;13.00;;;;;;;;;;5050120;28;20481;-78
2022/09/12 03:15:43;;;;;;;15.50;14.10;;;;;;;;;;5050863;28;20504;-78
2022/09/12 03:18:18;;;;;;;13.97;12.67;;;;;;;;;;5053031;28;20473;-77
2022/09/12 03:20:48;;;;;;;14.00;12.80;;;;;;;;;;5052528;28;20808;-78
2022/09/12 03:23:19;;;;;;;15.77;14.47;;;;;;;;;;5052798;28;20454;-78
2022/09/12 03:25:49;;;;;;;16.20;14.67;;;;;;;;;;5053141;28;20449;-77
2022/09/12 03:28:17;;;;;;;15.50;14.07;;;;;;;;;;5053376;28;20523;-78
2022/09/12 03:30:45;;;;;;;15.70;14.13;;;;;;;;;;5053182;28;20535;-77
2022/09/12 03:33:12;;;;;;;15.33;13.93;;;;;;;;;;5052257;28;20477;-78
2022/09/12 03:35:39;;;;;;;16.13;14.57;;;;;;;;;;5053157;28;20476;-78
2022/09/12 03:38:06;;;;;;;16.33;14.63;;;;;;;;;;5053382;28;20492;-78
2022/09/12 03:40:33;;;;;;;14.60;13.10;;;;;;;;;;5053095;28;20564;-78
2022/09/12 03:43:02;;;;;;;13.67;12.27;;;;;;;;;;5052548;28;20449;-76
2022/09/12 03:45:29;;;;;;;15.03;13.63;;;;;;;;;;5052875;28;20537;-78
2022/09/12 03:47:56;;;;;;;16.17;14.63;;;;;;;;;;5052706;28;20527;-77
2022/09/12 03:50:23;;;;;;;14.40;13.07;;;;;;;;;;5053065;28;20442;-78
2022/09/12 03:52:50;;;;;;;14.90;13.40;;;;;;;;;;5052874;28;20482;-78
2022/09/12 03:55:17;;;;;;;13.70;12.50;;;;;;;;;;5052775;28;20503;-77
2022/09/12 03:57:44;;;;;;;14.10;12.73;;;;;;;;;;5052499;28;20882;-77
2022/09/12 04:00:13;;;;;;;14.07;12.77;;;;;;;;;;5052318;28;20445;-77
2022/09/12 04:02:40;;;;;;;14.23;12.90;;;;;;;;;;5052446;28;20493;-77
2022/09/12 04:05:08;;;;;;;12.93;11.73;;;;;;;;;;5052676;28;20453;-77
2022/09/12 04:07:35;;;;;;;14.47;13.27;;;;;;;;;;5052039;28;20473;-78
2022/09/12 04:10:03;;;;;;;13.50;12.13;;;;;;;;;;5051834;28;20448;-77
2022/09/12 04:12:30;;;;;;;15.10;13.70;;;;;;;;;;5051877;28;20485;-77
2022/09/12 04:14:57;;;;;;;14.30;13.00;;;;;;;;;;5051674;28;20453;-78
2022/09/12 04:17:25;;;;;;;14.53;13.23;;;;;;;;;;5052768;28;20989;-77
2022/09/12 04:19:52;;;;;;;14.87;13.57;;;;;;;;;;5052940;28;20508;-78
2022/09/12 04:22:20;;;;;;;13.60;12.33;;;;;;;;;;5052370;28;20931;-78
2022/09/12 04:24:47;;;;;;;13.63;12.33;;;;;;;;;;5051868;28;20513;-77
2022/09/12 04:27:14;;;;;;;15.27;13.63;;;;;;;;;;5051697;28;20847;-77
2022/09/12 04:29:41;;;;;;;14.97;13.57;;;;;;;;;;5051711;28;20937;-77
2022/09/12 04:32:08;;;;;;;13.87;12.57;;;;;;;;;;5052384;28;20472;-77
2022/09/12 04:34:36;;;;;;;13.13;11.93;;;;;;;;;;5053941;28;20449;-77
2022/09/12 04:37:03;;;;;;;12.93;11.70;;;;;;;;;;5053696;28;20832;-77
2022/09/12 04:39:30;;;;;;;14.83;13.40;;;;;;;;;;5057361;28;20445;-78
2022/09/12 04:41:57;;;;;;;15.63;14.17;;;;;;;;;;5052986;28;20499;-78
2022/09/12 04:44:24;;;;;;;14.33;12.83;;;;;;;;;;5052391;28;20870;-77
2022/09/12 04:46:51;;;;;;;15.30;13.80;;;;;;;;;;5052384;28;20442;-77
2022/09/12 04:49:19;;;;;;;15.20;13.83;;;;;;;;;;5052099;28;20544;-78
2022/09/12 04:51:47;;;;;;;15.70;14.10;;;;;;;;;;5055724;28;20505;-78
2022/09/12 04:54:15;;;;;;;15.13;13.63;;;;;;;;;;5072320;28;20517;-77
2022/09/12 04:56:44;;;;;;;15.27;13.63;;;;;;;;;;5069481;28;20433;-77
2022/09/12 04:59:11;;;;;;;15.87;14.43;;;;;;;;;;5056888;28;20469;-77
2022/09/12 05:01:39;;;;;;;16.23;14.63;;;;;;;;;;5055734;28;20449;-78
2022/09/12 05:04:06;;;;;;;15.37;13.87;;;;;;;;;;5051545;28;20441;-77
2022/09/12 05:06:34;;;;;;;18.03;13.70;;;;;;;;;;5051552;28;20465;-78
2022/09/12 05:09:04;;;;;;;16.80;15.30;;;;;;;;;;5051662;28;20461;-78
2022/09/12 05:11:32;;;;;;;17.10;15.40;;;;;;;;;;5051735;28;20446;-77
2022/09/12 05:13:59;;;;;;;16.63;14.67;;;;;;;;;;5051399;28;20903;-78
2022/09/12 05:16:27;;;;;;;16.90;15.10;;;;;;;;;;5052489;28;20499;-78
2022/09/12 05:18:54;;;;;;;17.30;15.60;;;;;;;;;;5058021;28;20876;-78
2022/09/12 05:21:23;;;;;;;16.83;15.13;;;;;;;;;;5057830;28;20450;-78
2022/09/12 05:23:51;;;;;;;17.73;15.33;;;;;;;;;;5060097;28;20497;-76
2022/09/12 05:26:20;;;;;;;17.03;15.40;;;;;;;;;;5058579;28;20464;-79
2022/09/12 05:28:48;;;;;;;15.03;13.63;;;;;;;;;;5051359;28;20473;-78
2022/09/12 05:31:16;;;;;;;16.20;14.60;;;;;;;;;;5050929;28;20897;-78
2022/09/12 05:33:44;;;;;;;17.23;15.47;;;;;;;;;;5050758;28;20473;-79
2022/09/12 05:36:12;;;;;;;16.63;14.80;;;;;;;;;;5050313;28;20445;-78
2022/09/12 05:38:40;;;;;;;17.93;15.93;;;;;;;;;;5050408;28;20466;-78
2022/09/12 05:41:08;;;;;;;17.73;15.10;;;;;;;;;;5050822;28;20429;-78
2022/09/12 05:43:37;;;;;;;16.90;15.20;;;;;;;;;;5050309;28;20874;-78
2022/09/12 05:46:07;;;;;;;17.23;15.20;;;;;;;;;;5049924;28;20984;-78
2022/09/12 05:48:35;;;;;;;19.30;17.27;;;;;;;;;;5051050;28;20486;-78
2022/09/12 05:51:03;;;;;;;18.90;17.10;;;;;;;;;;5051446;28;20450;-77
2022/09/12 05:53:31;;;;;;;16.37;14.77;;;;;;;;;;5051515;28;20477;-78
2022/09/12 05:56:05;;;;;;;17.40;15.70;;;;;;;;;;5053286;28;20454;-77
2022/09/12 05:58:32;;;;;;;18.97;17.07;;;;;;;;;;5051666;28;20492;-77
2022/09/12 06:01:03;;;;;;;17.50;15.70;;;;;;;;;;5050971;28;20449;-77
2022/09/12 06:03:30;;;;;;;17.33;15.73;;;;;;;;;;5050467;28;20528;-78
2022/09/12 06:05:57;;;;;;;17.47;15.77;;;;;;;;;;5050777;28;20876;-78
2022/09/12 06:08:24;;;;;;;18.60;16.70;;;;;;;;;;5052539;28;20481;-77
2022/09/12 06:10:51;;;;;;;20.30;17.87;;;;;;;;;;5068741;28;20491;-77
2022/09/12 06:13:18;;;;;;;20.70;17.10;;;;;;;;;;5067638;28;20465;-79
2022/09/12 06:15:54;;;;;;;18.70;16.70;;;;;;;;;;5062439;28;20445;-79
2022/09/12 06:18:44;;;;;;;16.87;15.13;;;;;;;;;;5057765;28;20530;-78
2022/09/12 06:21:14;;;;;;;19.40;15.50;;;;;;;;;;5054266;28;20484;-79
2022/09/12 06:23:49;;;;;;;17.03;15.23;;;;;;;;;;5055156;28;20481;-78
2022/09/12 06:26:23;;;;;;;17.13;15.43;;;;;;;;;;5054555;28;20444;-78
2022/09/12 06:28:56;;;;;;;17.90;16.00;;;;;;;;;;5055984;28;21000;-79
2022/09/12 06:31:50;;;;;;;18.83;17.03;;;;;;;;;;5054392;28;20449;-79
2022/09/12 06:34:35;;;;;;;18.77;16.80;;;;;;;;;;5054834;28;20484;-78
2022/09/12 06:37:09;;;;;;;19.57;17.67;;;;;;;;;;5055408;28;20437;-77
2022/09/12 06:42:23;;;;;;;18.07;16.27;;;;;;;;;;5054773;28;20457;-78
2022/09/12 06:44:50;;;;;;;19.73;17.63;;;;;;;;;;5056167;28;20456;-78
2022/09/12 06:47:17;;;;;;;18.20;16.40;;;;;;;;;;5052062;28;20548;-77
2022/09/12 06:49:44;;;;;;;18.73;16.93;;;;;;;;;;5051830;28;20445;-78
2022/09/12 06:52:13;;;;;;;17.00;15.43;;;;;;;;;;5054209;28;20441;-78
2022/09/12 06:54:41;;;;;;;17.83;15.93;;;;;;;;;;5054054;28;20481;-78
2022/09/12 06:57:08;;;;;;;17.93;16.23;;;;;;;;;;5054969;28;20519;-78
2022/09/12 06:59:35;;;;;;;18.00;16.30;;;;;;;;;;5054608;28;20765;-79
2022/09/12 07:02:02;;;;;;;17.77;15.90;;;;;;;;;;5054077;28;20573;-79
2022/09/12 07:04:32;;;;;;;17.10;15.33;;;;;;;;;;5053931;28;20540;-78
2022/09/12 07:07:00;;;;;;;16.47;14.87;;;;;;;;;;5054468;28;20588;-78
2022/09/12 07:09:29;;;;;;;17.43;15.73;;;;;;;;;;5054136;28;20547;-79
2022/09/12 07:11:56;;;;;;;17.00;15.37;;;;;;;;;;5054068;28;20549;-78
2022/09/12 07:14:24;;;;;;;19.77;17.70;;;;;;;;;;5053615;28;20503;-78
2022/09/12 07:16:51;;;;;;;17.53;15.60;;;;;;;;;;5053930;28;20449;-78
2022/09/12 07:19:18;;;;;;;16.30;14.87;;;;;;;;;;5053918;28;20800;-78
2022/09/12 07:21:45;;;;;;;15.10;13.50;;;;;;;;;;5053415;28;20441;-78
2022/09/12 07:24:12;;;;;;;16.30;14.87;;;;;;;;;;5053509;28;20437;-79
2022/09/12 07:26:42;;;;;;;17.10;14.80;;;;;;;;;;5053543;28;20499;-79
2022/09/12 07:29:14;;;;;;;15.30;13.90;;;;;;;;;;5053265;28;20516;-77
2022/09/12 07:31:41;;;;;;;15.70;14.10;;;;;;;;;;5053687;28;20449;-78
2022/09/12 07:34:09;;;;;;;14.73;13.27;;;;;;;;;;5053141;28;20527;-78
2022/09/12 07:36:36;;;;;;;15.60;14.00;;;;;;;;;;5054537;28;20448;-79
2022/09/12 07:39:03;;;;;;;15.90;14.30;;;;;;;;;;5057924;28;20469;-77
2022/09/12 07:41:31;;;;;;;16.33;13.50;;;;;;;;;;5054944;28;20460;-78
2022/09/12 07:44:00;;;;;;;16.53;14.73;;;;;;;;;;5055246;28;20948;-77
2022/09/12 07:46:29;;;;;;;18.50;16.37;;;;;;;;;;5056350;28;20457;-79
2022/09/12 07:48:56;;;;;;;15.87;14.20;;;;;;;;;;5055844;28;20548;-77
2022/09/12 07:51:24;;;;;;;16.33;14.10;;;;;;;;;;5057880;28;20445;-78
2022/09/12 07:53:51;;;;;;;14.70;13.30;;;;;;;;;;5055995;28;20817;-78
2022/09/12 07:56:19;;;;;;;14.83;13.13;;;;;;;;;;5053193;28;20843;-78
2022/09/12 07:58:47;;;;;;;14.10;12.70;;;;;;;;;;5053172;28;21006;-77
2022/09/12 08:01:16;;;;;;;13.10;11.90;;;;;;;;;;5053182;28;20450;-77
2022/09/12 08:03:44;;;;;;;12.20;11.20;;;;;;;;;;5052761;28;20442;-77
2022/09/12 08:06:13;;;;;;;13.30;12.20;;;;;;;;;;5052896;28;20496;-78
2022/09/12 08:08:40;;;;;;;14.03;12.57;;;;;;;;;;5052742;28;20544;-78
2022/09/12 08:11:08;;;;;;;13.23;11.93;;;;;;;;;;5052336;28;20449;-78
2022/09/12 08:13:35;;;;;;;12.83;11.43;;;;;;;;;;5052176;28;20515;-78
2022/09/12 08:16:04;;;;;;;12.90;11.63;;;;;;;;;;5052464;28;20458;-76
2022/09/12 08:18:33;;;;;;;12.60;11.40;;;;;;;;;;5052166;28;21019;-77
2022/09/12 08:21:01;;;;;;;12.27;11.17;;;;;;;;;;5053969;28;20559;-77
2022/09/12 08:23:28;;;;;;;12.87;11.40;;;;;;;;;;5055746;28;20449;-77
2022/09/12 08:25:56;;;;;;;11.60;10.60;;;;;;;;;;5053214;28;20531;-77
2022/09/12 08:28:23;;;;;;;10.23;9.43;;;;;;;;;;5051949;28;20553;-78
2022/09/12 08:30:50;;;;;;;11.70;10.73;;;;;;;;;;5051952;28;20496;-78
2022/09/12 08:33:17;;;;;;;9.80;8.87;;;;;;;;;;5051325;28;20458;-77
2022/09/12 08:35:46;;;;;;;9.23;8.43;;;;;;;;;;5052758;28;20441;-77
2022/09/12 08:38:13;;;;;;;9.40;8.60;;;;;;;;;;5052411;28;20531;-78
2022/09/12 08:40:59;;;;;;;8.93;8.23;;;;;;;;;;5051924;28;20449;-77
2022/09/12 08:43:32;;;;;;;9.20;8.40;;;;;;;;;;5051417;28;20437;-77
2022/09/12 08:46:02;;;;;;;9.07;8.37;;;;;;;;;;5052431;28;20605;-78
2022/09/12 08:48:30;;;;;;;9.77;8.87;;;;;;;;;;5052515;28;20473;-78
2022/09/12 08:50:58;;;;;;;8.40;7.70;;;;;;;;;;5051886;28;20512;-78
2022/09/12 08:53:28;;;;;;;8.10;7.40;;;;;;;;;;5055072;28;20933;-77
2022/09/12 08:55:58;;;;;;;9.23;8.40;;;;;;;;;;5069341;28;20441;-77
2022/09/12 08:58:26;;;;;;;7.77;7.17;;;;;;;;;;5070822;28;20469;-77
2022/09/12 09:00:59;;;;;;;7.80;7.20;;;;;;;;;;5062865;28;20438;-78
2022/09/12 09:03:49;;;;;;;7.80;7.20;;;;;;;;;;5053065;28;20552;-79
2022/09/12 09:06:22;;;;;;;8.47;7.73;;;;;;;;;;5051792;28;20508;-78
2022/09/12 09:08:57;;;;;;;8.90;8.00;;;;;;;;;;5051403;28;20461;-78
2022/09/12 09:11:30;;;;;;;7.70;7.10;;;;;;;;;;5051967;28;20467;-79
2022/09/12 09:16:48;;;;;;;7.20;6.60;;;;;;;;;;5051681;28;20467;-78
2022/09/12 09:19:17;;;;;;;5.93;5.43;;;;;;;;;;5051677;28;20446;-78
2022/09/12 09:21:48;;;;;;;5.80;5.43;;;;;;;;;;5051673;28;20441;-77
2022/09/12 09:24:18;;;;;;;6.17;5.67;;;;;;;;;;5050759;28;20469;-77
2022/09/12 09:26:47;;;;;;;5.63;5.13;;;;;;;;;;5050749;28;20807;-77
2022/09/12 09:29:16;;;;;;;5.73;5.33;;;;;;;;;;5050867;28;20879;-77
2022/09/12 09:31:45;;;;;;;4.67;4.33;;;;;;;;;;5050914;28;20449;-77
2022/09/12 09:34:14;;;;;;;4.43;4.13;;;;;;;;;;5050002;28;20478;-77
2022/09/12 09:36:48;;;;;;;4.30;4.00;;;;;;;;;;5051629;28;20541;-78
2022/09/12 09:39:21;;;;;;;6.03;4.60;;;;;;;;;;5051159;28;20433;-77
2022/09/12 09:41:54;;;;;;;4.07;3.77;;;;;;;;;;5051076;28;20484;-77
2022/09/12 09:44:21;;;;;;;4.27;3.93;;;;;;;;;;5050231;28;20761;-77
2022/09/12 09:46:49;;;;;;;4.13;3.83;;;;;;;;;;5051163;28;20575;-78
2022/09/12 09:49:16;;;;;;;3.87;3.50;;;;;;;;;;5051383;28;20453;-78
2022/09/12 09:51:44;;;;;;;3.70;3.50;;;;;;;;;;5050750;28;20832;-77
2022/09/12 09:54:20;;;;;;;3.13;2.93;;;;;;;;;;5050683;28;20600;-77
2022/09/12 09:56:47;;;;;;;3.23;2.97;;;;;;;;;;5051270;28;20491;-78
2022/09/12 09:59:16;;;;;;;2.90;2.80;;;;;;;;;;5050879;28;20441;-78
2022/09/12 10:01:47;;;;;;;3.00;2.90;;;;;;;;;;5050869;28;20450;-78
2022/09/12 10:04:19;;;;;;;3.17;3.07;;;;;;;;;;5050321;28;20447;-78
2022/09/12 10:06:46;;;;;;;3.47;3.23;;;;;;;;;;5049903;28;20968;-78
2022/09/12 10:09:22;;;;;;;2.87;2.70;;;;;;;;;;5049791;28;20445;-77
2022/09/12 10:11:50;;;;;;;2.90;2.57;;;;;;;;;;5050441;28;20678;-77
2022/09/12 10:14:34;;;;;;;2.97;2.73;;;;;;;;;;5049974;28;20904;-77
2022/09/12 10:17:02;;;;;;;2.80;2.67;;;;;;;;;;5051635;28;20536;-77
2022/09/12 10:19:34;;;;;;;2.80;2.50;;;;;;;;;;5054142;28;20444;-78
2022/09/12 10:22:02;;;;;;;2.77;2.67;;;;;;;;;;5050612;28;20491;-78
2022/09/12 10:24:33;;;;;;;2.70;2.60;;;;;;;;;;5050665;28;20451;-78
2022/09/12 10:27:07;;;;;;;2.50;2.27;;;;;;;;;;5053494;28;20965;-78
2022/09/12 10:29:36;;;;;;;2.80;2.70;;;;;;;;;;5054068;28;20510;-77
2022/09/12 10:32:05;;;;;;;2.60;2.40;;;;;;;;;;5054098;28;21003;-77
2022/09/12 10:34:35;;;;;;;2.47;2.37;;;;;;;;;;5054336;28;20546;-77
2022/09/12 10:37:05;;;;;;;2.70;2.60;;;;;;;;;;5054682;28;20862;-78
2022/09/12 10:39:34;;;;;;;2.63;2.43;;;;;;;;;;5055622;28;20442;-78
2022/09/12 10:42:02;;;;;;;2.47;2.37;;;;;;;;;;5061112;28;20960;-77
2022/09/12 10:44:30;;;;;;;5.20;2.80;;;;;;;;;;5063633;28;20441;-77
2022/09/12 10:46:58;;;;;;;2.47;2.27;;;;;;;;;;5058272;28;20921;-78
2022/09/12 10:49:26;;;;;;;2.40;2.30;;;;;;;;;;5061675;28;20441;-78
2022/09/12 10:51:54;;;;;;;2.50;2.33;;;;;;;;;;5062694;28;20445;-77
2022/09/12 10:54:22;;;;;;;2.80;2.60;;;;;;;;;;5062492;28;20481;-78
2022/09/12 10:57:00;;;;;;;2.50;2.40;;;;;;;;;;5061978;28;20471;-77
2022/09/12 10:59:33;;;;;;;2.70;2.50;;;;;;;;;;5060597;28;20444;-78
2022/09/12 11:02:01;;;;;;;2.63;2.50;;;;;;;;;;5062670;28;21003;-78
2022/09/12 11:04:32;;;;;;;3.00;2.90;;;;;;;;;;5057192;28;20444;-77
2022/09/12 11:07:06;;;;;;;2.30;2.20;;;;;;;;;;5057398;28;20465;-77
2022/09/12 11:09:38;;;;;;;4.20;3.90;;;;;;;;;;5054436;28;20449;-78
2022/09/12 11:12:12;;;;;;;2.20;2.10;;;;;;;;;;5053352;28;20475;-77
2022/09/12 11:14:46;;;;;;;2.30;2.20;;;;;;;;;;5053211;28;20478;-77
2022/09/12 11:17:17;;;;;;;2.60;2.40;;;;;;;;;;5053139;28;20530;-77
2022/09/12 11:19:53;;;;;;;2.20;1.90;;;;;;;;;;5052614;28;20445;-77
2022/09/12 11:22:26;;;;;;;2.33;2.13;;;;;;;;;;5053061;28;20453;-77
2022/09/12 11:25:07;;;;;;;2.47;2.27;;;;;;;;;;5053218;28;20855;-78
2022/09/12 11:27:43;;;;;;;2.40;2.00;;;;;;;;;;5055661;28;20457;-78
2022/09/12 11:30:12;;;;;;;1.80;1.70;;;;;;;;;;5052833;28;20452;-77
2022/09/12 11:32:58;;;;;;;1.50;1.50;;;;;;;;;;5052567;28;20460;-77
2022/09/12 11:35:26;;;;;;;4.33;2.33;;;;;;;;;;5052374;28;21004;-77
2022/09/12 11:38:00;;;;;;;1.60;1.60;;;;;;;;;;5051885;28;20480;-77
2022/09/12 11:40:29;;;;;;;1.90;1.80;;;;;;;;;;5052922;28;20481;-77
2022/09/12 11:43:00;;;;;;;1.80;1.70;;;;;;;;;;5052525;28;20453;-77
2022/09/12 11:45:28;;;;;;;1.93;1.83;;;;;;;;;;5053185;28;20789;-78
2022/09/12 11:47:58;;;;;;;1.53;1.43;;;;;;;;;;5074555;28;20442;-77
2022/09/12 11:50:27;;;;;;;1.30;1.30;;;;;;;;;;5075695;28;20456;-77
2022/09/12 11:52:55;;;;;;;1.70;1.60;;;;;;;;;;5069185;28;20544;-77
2022/09/12 11:55:26;;;;;;;1.27;1.27;;;;;;;;;;5052676;28;20896;-78
2022/09/12 11:57:54;;;;;;;1.50;1.40;;;;;;;;;;5053379;28;20469;-76
2022/09/12 12:00:25;;;;;;;1.50;1.00;;;;;;;;;;5052481;28;20507;-76
2022/09/12 12:02:59;;;;;;;1.37;1.27;;;;;;;;;;5053735;28;20445;-76
2022/09/12 12:05:27;;;;;;;2.93;2.27;;;;;;;;;;5052887;28;20980;-78
2022/09/12 12:07:55;;;;;;;1.20;1.10;;;;;;;;;;5055639;28;20491;-77
2022/09/12 12:10:28;;;;;;;0.90;0.90;;;;;;;;;;5054758;28;20991;-77
2022/09/12 12:12:56;;;;;;;3.97;1.33;;;;;;;;;;5051719;28;20932;-76
2022/09/12 12:15:25;;;;;;;2.13;1.10;;;;;;;;;;5051928;28;20989;-77
2022/09/12 12:18:02;;;;;;;1.27;1.27;;;;;;;;;;5051691;28;20477;-77
2022/09/12 12:20:29;;;;;;;1.63;1.27;;;;;;;;;;5051754;28;20461;-77
2022/09/12 12:22:57;;;;;;;1.37;1.27;;;;;;;;;;5051468;28;20449;-77
2022/09/12 12:25:26;;;;;;;1.47;1.03;;;;;;;;;;5051618;28;20445;-77
2022/09/12 12:27:55;;;;;;;1.00;1.00;;;;;;;;;;5051432;28;20988;-77
2022/09/12 12:30:40;;;;;;;0.97;0.97;;;;;;;;;;5051286;28;20548;-77
2022/09/12 12:33:32;;;;;;;1.00;1.00;;;;;;;;;;5040894;28;20480;-77
2022/09/12 12:36:03;;;;;;;1.50;1.40;;;;;;;;;;5051190;28;20484;-77
2022/09/12 12:38:31;;;;;;;1.00;1.00;;;;;;;;;;5051498;28;20477;-77
2022/09/12 12:41:13;;;;;;;1.10;1.10;;;;;;;;;;5051321;28;20503;-78
2022/09/12 12:43:40;;;;;;;1.07;1.07;;;;;;;;;;5051132;28;20785;-77
2022/09/12 12:46:14;;;;;;;0.90;0.90;;;;;;;;;;5051382;28;20963;-77
2022/09/12 12:48:47;;;;;;;1.03;1.00;;;;;;;;;;5050035;28;20852;-78
2022/09/12 12:51:25;;;;;;;1.17;1.17;;;;;;;;;;5051051;28;20938;-77
2022/09/12 12:53:53;;;;;;;1.13;1.00;;;;;;;;;;5050977;28;20438;-77
2022/09/12 12:56:28;;;;;;;1.33;1.10;;;;;;;;;;5051350;28;20477;-77
2022/09/12 12:58:59;;;;;;;1.00;1.00;;;;;;;;;;5051265;28;20468;-77
2022/09/12 13:01:27;;;;;;;1.07;1.07;;;;;;;;;;5051795;28;20504;-78
2022/09/12 13:03:56;;;;;;;1.37;1.00;;;;;;;;;;5051006;28;20481;-77
2022/09/12 13:06:28;;;;;;;0.93;0.93;;;;;;;;;;5052173;28;20450;-77
2022/09/12 13:08:58;;;;;;;0.90;0.90;;;;;;;;;;5051149;28;20965;-77
2022/09/12 13:11:30;;;;;;;1.27;1.27;;;;;;;;;;5051822;28;20507;-78
2022/09/12 13:13:59;;;;;;;1.03;1.03;;;;;;;;;;5051383;28;20841;-77
2022/09/12 13:16:30;;;;;;;1.40;1.30;;;;;;;;;;5050936;28;20884;-77
2022/09/12 13:19:03;;;;;;;2.73;1.03;;;;;;;;;;5051296;28;20461;-78
2022/09/12 13:21:30;;;;;;;1.00;0.90;;;;;;;;;;5050737;28;21033;-78
2022/09/12 13:24:01;;;;;;;1.10;1.10;;;;;;;;;;5050263;28;20471;-77
2022/09/12 13:26:29;;;;;;;1.07;1.00;;;;;;;;;;5050778;28;20532;-77
2022/09/12 13:29:12;;;;;;;1.23;1.13;;;;;;;;;;5050149;28;20472;-77
2022/09/12 13:31:39;;;;;;;1.20;1.17;;;;;;;;;;5051036;28;20874;-78
2022/09/12 13:34:09;;;;;;;1.27;1.20;;;;;;;;;;5051516;28;20469;-78
2022/09/12 13:36:47;;;;;;;1.17;0.93;;;;;;;;;;5051301;28;20477;-79
2022/09/12 13:39:19;;;;;;;4.00;1.20;;;;;;;;;;5050839;28;20448;-78
2022/09/12 13:41:55;;;;;;;1.27;1.10;;;;;;;;;;5051091;28;20445;-77
2022/09/12 13:44:23;;;;;;;1.10;1.10;;;;;;;;;;5051806;28;20476;-77
2022/09/12 13:46:50;;;;;;;0.90;0.90;;;;;;;;;;5051039;28;20442;-77
2022/09/12 13:49:22;;;;;;;1.13;1.07;;;;;;;;;;5052465;28;20441;-78
2022/09/12 13:51:56;;;;;;;1.13;1.03;;;;;;;;;;5052033;28;20515;-77
2022/09/12 13:54:23;;;;;;;0.93;0.93;;;;;;;;;;5049944;28;20511;-78
2022/09/12 13:56:50;;;;;;;0.83;0.83;;;;;;;;;;5050343;28;20485;-78
2022/09/12 13:59:17;;;;;;;0.87;0.87;;;;;;;;;;5049618;28;20446;-77
2022/09/12 14:01:45;;;;;;;0.80;0.70;;;;;;;;;;5050169;28;20441;-77
2022/09/12 14:07:04;;;;;;;1.83;1.40;;;;;;;;;;5050900;28;20437;-77
2022/09/12 14:09:33;;;;;;;1.67;1.13;;;;;;;;;;5054116;28;20955;-79
2022/09/12 14:12:00;;;;;;;0.80;0.80;;;;;;;;;;5053516;28;21137;-78
2022/09/12 14:14:30;;;;;;;1.33;1.23;;;;;;;;;;5051782;28;20523;-77
2022/09/12 14:16:57;;;;;;;1.17;1.00;;;;;;;;;;5049891;28;20465;-78
2022/09/12 14:19:26;;;;;;;1.07;1.07;;;;;;;;;;5054076;28;20457;-77
2022/09/12 14:21:53;;;;;;;0.93;0.93;;;;;;;;;;5056800;28;20963;-77
2022/09/12 14:24:23;;;;;;;0.90;0.73;;;;;;;;;;5058983;28;20438;-77
2022/09/12 14:26:51;;;;;;;1.20;1.10;;;;;;;;;;5056592;28;20446;-77
2022/09/12 14:29:19;;;;;;;1.00;1.00;;;;;;;;;;5053968;28;20829;-78
2022/09/12 14:31:46;;;;;;;1.13;1.10;;;;;;;;;;5049871;28;20937;-77
2022/09/12 14:34:14;;;;;;;1.20;1.10;;;;;;;;;;5054248;28;20449;-77
2022/09/12 14:36:46;;;;;;;1.30;1.20;;;;;;;;;;5072370;28;20520;-77
2022/09/12 14:39:18;;;;;;;1.00;1.00;;;;;;;;;;5074184;28;20421;-77
2022/09/12 14:41:47;;;;;;;0.90;0.90;;;;;;;;;;5056885;28;20793;-78
2022/09/12 14:44:18;;;;;;;1.90;0.93;;;;;;;;;;5050354;28;20445;-76
2022/09/12 14:46:45;;;;;;;1.23;0.97;;;;;;;;;;5050036;28;20455;-77
2022/09/12 14:49:16;;;;;;;0.80;0.80;;;;;;;;;;5049641;28;20465;-77
2022/09/12 14:51:47;;;;;;;1.40;1.10;;;;;;;;;;5049685;28;20883;-77